首页
METAR-TAF:

METAR-TAF

机场 :

拉奥罗拉国际机场

瓜地馬拉, 危地马拉

纬度: 14-35N, 经度: 090-31W, 海拔: 1489米

当前天气观测

该预报发布于1小时和1分钟前的01:00 UTC
风速6节,风向
温度 19°C
湿度 83%
气压 1024 hPa
能见度10公里或以上
散云层高于1400英尺

METAR: MGGT 220100Z 36006KT 9999 SCT014 19/16 Q1024 A3024

时间: 20:01 (02:01 UTC)

预报

该预报发布于2小时和31分钟前的23:30 UTC
预报有效从22日的 00点(UTC)到 22日的 24点(UTC)
风速10节,风向
能见度10公里或以上
散云层高于1600英尺
散云层高于8000英尺
成为
从 22日的 08点(UTC)到 22日的 10点(UTC)
多云层高于1400英尺
成为
从 22日的 15点(UTC)到 22日的 17点(UTC)
风速14节,风向
散云层高于1800英尺

TAF: MGGT 212330Z 2200/2224 36010KT 9999 SCT016 SCT080 TX26/2220Z TN15/2212Z BECMG 2208/2210 BKN014 BECMG 2215/2217 36014KT SCT018

超过4000个机场的气象观测和天气预报(METAR&TAF报告)。

可查询的气象台以黄色和红色小点在地图上表示。

将鼠标移到小点上方,可查看气象台名称。

然后点击查看天气观测和预报。

如需切换地图:点击带黑十字的绿色按钮放大地图;点击带横线的绿色按钮缩小地图;或者点击绿色箭头查看邻近地区的地图。


METAR-TAF: